createdAt,value
2023-02-04T00:01:59.495Z,96401.91
2023-02-04T00:04:26.061Z,96417.19
2023-02-04T00:06:52.547Z,96411.44
2023-02-04T00:09:19.086Z,96405.41
2023-02-04T00:11:45.577Z,96433.38
2023-02-04T00:14:12.719Z,96445.44
2023-02-04T00:16:39.253Z,96452.94
2023-02-04T00:19:05.873Z,96446.25
2023-02-04T00:21:32.306Z,96470.00
2023-02-04T00:23:58.793Z,96461.59
2023-02-04T00:26:25.397Z,96465.06
2023-02-04T00:28:51.920Z,96470.34
2023-02-04T00:31:18.534Z,96464.28
2023-02-04T00:33:45.414Z,96478.69
2023-02-04T00:36:11.997Z,96478.81
2023-02-04T00:38:38.497Z,96488.81
2023-02-04T00:41:06.516Z,96499.03
2023-02-04T00:43:32.969Z,96515.97
2023-02-04T00:45:59.511Z,96510.03
2023-02-04T00:48:26.864Z,96510.78
2023-02-04T00:50:54.076Z,96526.97
2023-02-04T00:53:20.577Z,96519.41
2023-02-04T00:55:47.172Z,96542.97
2023-02-04T00:58:13.662Z,96558.19
2023-02-04T01:00:40.422Z,96552.91
2023-02-04T01:03:07.189Z,96548.84
2023-02-04T01:05:33.767Z,96562.38
2023-02-04T01:08:00.217Z,96579.34
2023-02-04T01:10:26.955Z,96585.78
2023-02-04T01:12:53.645Z,96580.66
2023-02-04T01:15:20.114Z,96586.78
2023-02-04T01:17:46.754Z,96595.91
2023-02-04T01:20:13.268Z,96600.19
2023-02-04T01:22:39.748Z,96607.91
2023-02-04T01:25:06.828Z,96607.91
2023-02-04T01:27:33.443Z,96614.75
2023-02-04T01:29:59.954Z,96617.84
2023-02-04T01:32:26.473Z,96622.84
2023-02-04T01:34:53.113Z,96631.31
2023-02-04T01:37:19.579Z,96648.09
2023-02-04T01:39:46.110Z,96646.22
2023-02-04T01:42:13.073Z,96660.56
2023-02-04T01:44:40.011Z,96669.13
2023-02-04T01:47:06.733Z,96668.16
2023-02-04T01:49:33.429Z,96677.31
2023-02-04T01:51:59.921Z,96694.13
2023-02-04T01:54:26.991Z,96702.69
2023-02-04T01:56:55.224Z,96719.47
2023-02-04T01:59:22.119Z,96723.84
2023-02-04T02:01:51.036Z,96722.06
2023-02-04T02:04:20.541Z,96729.53
2023-02-04T02:06:50.019Z,96741.50
2023-02-04T02:09:16.548Z,96746.47
2023-02-04T02:11:43.374Z,96747.19
2023-02-04T02:14:09.999Z,96754.94
2023-02-04T02:16:36.612Z,96763.31
2023-02-04T02:19:04.288Z,96780.91
2023-02-04T02:21:37.166Z,96792.88
2023-02-04T02:24:26.700Z,96805.53
2023-02-04T02:26:54.091Z,96812.13
2023-02-04T02:29:20.757Z,96823.28
2023-02-04T02:31:47.368Z,96835.88
2023-02-04T02:34:13.956Z,96843.38
2023-02-04T02:36:40.653Z,96856.63
2023-02-04T02:39:07.231Z,96858.38
2023-02-04T02:41:35.220Z,96876.16
2023-02-04T02:44:02.512Z,96871.00
2023-02-04T02:46:29.064Z,96884.63
2023-02-04T02:48:55.694Z,96892.88
2023-02-04T02:51:22.204Z,96913.22
2023-02-04T02:53:49.459Z,96917.50
2023-02-04T02:56:17.888Z,96925.00
2023-02-04T02:58:44.424Z,96927.53
2023-02-04T03:01:11.702Z,96924.34
2023-02-04T03:03:41.217Z,96948.56
2023-02-04T03:06:13.986Z,96951.69
2023-02-04T03:08:41.121Z,96950.91
2023-02-04T03:11:07.598Z,96961.03
2023-02-04T03:13:34.338Z,96977.06
2023-02-04T03:16:01.022Z,96983.97
2023-02-04T03:18:28.013Z,96987.97
2023-02-04T03:20:54.691Z,97000.63
2023-02-04T03:23:21.270Z,97002.59
2023-02-04T03:25:47.965Z,97008.41
2023-02-04T03:28:14.679Z,97022.00
2023-02-04T03:30:41.218Z,97031.25
2023-02-04T03:33:07.790Z,97053.06
2023-02-04T03:35:34.258Z,97058.13
2023-02-04T03:38:00.745Z,97063.16
2023-02-04T03:40:27.204Z,97074.09
2023-02-04T03:42:53.879Z,97079.94
2023-02-04T03:45:20.429Z,97078.41
2023-02-04T03:47:46.908Z,97086.09
2023-02-04T03:50:14.341Z,97096.97
2023-02-04T03:52:40.835Z,97104.69
2023-02-04T03:55:07.458Z,97113.94
2023-02-04T03:57:34.407Z,97122.56
2023-02-04T04:00:00.886Z,97132.69
2023-02-04T04:02:27.403Z,97137.13
2023-02-04T04:04:54.004Z,97151.47
2023-02-04T04:07:20.480Z,97155.75
2023-02-04T04:09:46.939Z,97160.22
2023-02-04T04:12:13.501Z,97171.09
2023-02-04T04:14:39.964Z,97183.91
2023-02-04T04:17:07.091Z,97183.94
2023-02-04T04:19:33.696Z,97186.63
2023-02-04T04:22:00.189Z,97200.09
2023-02-04T04:24:26.869Z,97209.41
2023-02-04T04:26:53.329Z,97215.38
2023-02-04T04:29:19.782Z,97227.09
2023-02-04T04:31:46.227Z,97234.78
2023-02-04T04:34:12.927Z,97246.50
2023-02-04T04:36:39.357Z,97250.59
2023-02-04T04:39:05.790Z,97255.03
2023-02-04T04:41:32.357Z,97265.31
2023-02-04T04:43:58.818Z,97277.78
2023-02-04T04:46:25.285Z,97276.88
2023-02-04T04:48:51.909Z,97283.72
2023-02-04T04:51:18.368Z,97277.97
2023-02-04T04:53:44.840Z,97282.91
2023-02-04T04:56:11.705Z,97294.47
2023-02-04T04:58:38.252Z,97304.34
2023-02-04T05:01:04.858Z,97305.31
2023-02-04T05:03:31.375Z,97311.28
2023-02-04T05:05:57.900Z,97316.25
2023-02-04T05:08:24.369Z,97325.44
2023-02-04T05:10:50.914Z,97333.78
2023-02-04T05:13:17.343Z,97344.47
2023-02-04T05:15:43.848Z,97355.44
2023-02-04T05:18:10.465Z,97353.50
2023-02-04T05:20:37.177Z,97356.06
2023-02-04T05:23:05.604Z,97362.63
2023-02-04T05:25:32.551Z,97365.56
2023-02-04T05:27:59.063Z,97373.25
2023-02-04T05:30:25.655Z,97383.22
2023-02-04T05:32:52.149Z,97382.19
2023-02-04T05:35:18.684Z,97394.81
2023-02-04T05:37:45.231Z,97398.06
2023-02-04T05:40:12.800Z,97406.69
2023-02-04T05:42:39.484Z,97426.00
2023-02-04T05:45:06.249Z,97426.91
2023-02-04T05:47:32.735Z,97442.91
2023-02-04T05:49:59.214Z,97443.75
2023-02-04T05:52:25.650Z,97452.13
2023-02-04T05:54:52.139Z,97456.63
2023-02-04T05:57:18.671Z,97473.56
2023-02-04T05:59:45.555Z,97479.50
2023-02-04T06:02:12.035Z,97488.63
2023-02-04T06:04:38.547Z,97499.63
2023-02-04T06:07:05.102Z,97509.69
2023-02-04T06:09:31.615Z,97517.97
2023-02-04T06:11:58.087Z,97523.88
2023-02-04T06:14:24.660Z,97533.16
2023-02-04T06:16:51.181Z,97540.28
2023-02-04T06:19:17.696Z,97541.34
2023-02-04T06:21:44.151Z,97557.41
2023-02-04T06:24:10.760Z,97557.44
2023-02-04T06:26:37.224Z,97562.69
2023-02-04T06:29:03.974Z,97570.06
2023-02-04T06:31:30.740Z,97590.44
2023-02-04T06:33:57.272Z,97592.38
2023-02-04T06:36:23.828Z,97595.00
2023-02-04T06:38:50.344Z,97596.06
2023-02-04T06:41:16.888Z,97603.56
2023-02-04T06:43:43.513Z,97599.34
2023-02-04T06:46:10.009Z,97626.50
2023-02-04T06:48:36.530Z,97626.53
2023-02-04T06:51:03.071Z,97630.06
2023-02-04T06:53:29.679Z,97636.75
2023-02-04T06:55:56.228Z,97645.22
2023-02-04T06:58:22.719Z,97652.66
2023-02-04T07:00:49.237Z,97657.78
2023-02-04T07:03:15.757Z,97662.88
2023-02-04T07:05:42.199Z,97661.19
2023-02-04T07:08:08.708Z,97677.16
2023-02-04T07:10:35.458Z,97683.09
2023-02-04T07:13:02.173Z,97687.41
2023-02-04T07:15:28.779Z,97694.03
2023-02-04T07:17:55.432Z,97699.31
2023-02-04T07:20:21.907Z,97708.53
2023-02-04T07:22:48.367Z,97710.38
2023-02-04T07:25:16.047Z,97722.00
2023-02-04T07:27:42.605Z,97722.97
2023-02-04T07:30:10.648Z,97727.16
2023-02-04T07:32:37.260Z,97732.97
2023-02-04T07:35:04.068Z,97745.44
2023-02-04T07:37:30.656Z,97747.25
2023-02-04T07:39:57.174Z,97748.94
2023-02-04T07:42:23.877Z,97761.47
2023-02-04T07:44:50.454Z,97754.81
2023-02-04T07:47:17.060Z,97750.69
2023-02-04T07:49:43.518Z,97763.25
2023-02-04T07:52:10.221Z,97768.13
2023-02-04T07:54:36.821Z,97775.69
2023-02-04T07:57:03.365Z,97779.09
2023-02-04T07:59:29.943Z,97782.44
2023-02-04T08:01:56.640Z,97788.25
2023-02-04T08:04:23.225Z,97796.50
2023-02-04T08:06:49.816Z,97802.38
2023-02-04T08:09:16.332Z,97801.56
2023-02-04T08:11:42.937Z,97795.72
2023-02-04T08:14:09.483Z,97801.63
2023-02-04T08:16:36.111Z,97804.97
2023-02-04T08:19:02.729Z,97816.81
2023-02-04T08:21:29.263Z,97821.81
2023-02-04T08:23:55.854Z,97821.81
2023-02-04T08:26:22.570Z,97826.88
2023-02-04T08:28:49.196Z,97833.59
2023-02-04T08:31:15.835Z,97830.91
2023-02-04T08:33:42.487Z,97845.75
2023-02-04T08:36:09.087Z,97842.88
2023-02-04T08:38:35.636Z,97862.28
2023-02-04T08:41:02.496Z,97882.28
2023-02-04T08:43:29.213Z,97900.22
2023-02-04T08:45:55.718Z,97906.25
2023-02-04T08:48:22.244Z,97915.47
2023-02-04T08:50:51.742Z,97915.19
2023-02-04T08:53:18.333Z,97924.13
2023-02-04T08:55:45.010Z,97920.91
2023-02-04T08:58:11.987Z,97924.66
2023-02-04T09:00:38.533Z,97919.28
2023-02-04T09:03:05.176Z,97930.25
2023-02-04T09:05:31.931Z,97915.78
2023-02-04T09:07:58.479Z,97932.44
2023-02-04T09:10:25.074Z,97923.94
2023-02-04T09:12:56.008Z,97916.06
2023-02-04T09:15:24.506Z,97924.38
2023-02-04T09:17:54.110Z,97935.03
2023-02-04T09:20:21.594Z,97928.44
2023-02-04T09:22:50.276Z,97939.00
2023-02-04T09:25:17.100Z,97939.34
2023-02-04T09:27:43.844Z,97926.56
2023-02-04T09:30:10.955Z,97937.94
2023-02-04T09:32:37.469Z,97945.09
2023-02-04T09:35:04.386Z,97946.50
2023-02-04T09:37:30.975Z,97929.44
2023-02-04T09:39:57.695Z,97927.66
2023-02-04T09:42:25.410Z,97912.72
2023-02-04T09:44:52.227Z,97903.81
2023-02-04T09:47:22.621Z,97907.41
2023-02-04T09:49:49.171Z,97909.25
2023-02-04T09:52:17.021Z,97902.19
2023-02-04T09:54:43.709Z,97910.34
2023-02-04T09:57:19.059Z,97909.69
2023-02-04T09:59:46.218Z,97903.56
2023-02-04T10:02:24.476Z,97903.69
2023-02-04T10:04:57.723Z,97900.03
2023-02-04T10:07:26.444Z,97902.91
2023-02-04T10:09:54.398Z,97902.38
2023-02-04T10:12:21.440Z,97904.06
2023-02-04T10:14:47.979Z,97897.44
2023-02-04T10:17:19.688Z,97898.47
2023-02-04T10:19:46.246Z,97892.13
2023-02-04T10:22:17.831Z,97892.72
2023-02-04T10:24:44.460Z,97893.06
2023-02-04T10:27:15.452Z,97890.13
2023-02-04T10:29:43.487Z,97897.53
2023-02-04T10:32:34.436Z,97887.22
2023-02-04T10:35:02.486Z,97891.38
2023-02-04T10:37:30.310Z,97893.00
2023-02-04T10:39:56.879Z,97899.28
2023-02-04T10:42:28.390Z,97904.16
2023-02-04T10:44:55.536Z,97901.66
2023-02-04T10:47:24.985Z,97907.78
2023-02-04T10:50:02.870Z,97912.59
2023-02-04T10:52:37.538Z,97901.78
2023-02-04T10:55:05.686Z,97910.97
2023-02-04T10:57:39.657Z,97907.19
2023-02-04T11:00:21.493Z,97898.34
2023-02-04T11:02:58.275Z,97898.63
2023-02-04T11:05:30.408Z,97903.13
2023-02-04T11:07:57.014Z,97907.00
2023-02-04T11:10:27.929Z,97900.22
2023-02-04T11:12:54.491Z,97890.94
2023-02-04T11:15:41.048Z,97890.28
2023-02-04T11:18:27.770Z,97901.78
2023-02-04T11:20:56.912Z,97890.75
2023-02-04T11:23:26.959Z,97896.63
2023-02-04T11:26:08.299Z,97899.03
2023-02-04T11:28:50.471Z,97900.03
2023-02-04T11:31:19.684Z,97916.75
2023-02-04T11:33:46.932Z,97901.84
2023-02-04T11:36:15.169Z,97904.16
2023-02-04T11:38:49.888Z,97907.28
2023-02-04T11:41:33.289Z,97899.75
2023-02-04T11:43:59.876Z,97914.75
2023-02-04T11:46:27.073Z,97907.28
2023-02-04T11:48:54.860Z,97898.66
2023-02-04T11:51:26.432Z,97902.78
2023-02-04T11:53:53.133Z,97900.03
2023-02-04T11:56:20.923Z,97907.47
2023-02-04T11:58:51.024Z,97911.91
2023-02-04T12:01:22.124Z,97903.31
2023-02-04T12:03:50.624Z,97913.59
2023-02-04T12:06:25.388Z,97905.13
2023-02-04T12:08:52.181Z,97908.69
2023-02-04T12:11:36.069Z,97922.41
2023-02-04T12:14:10.395Z,97902.81
2023-02-04T12:16:46.794Z,97902.81
2023-02-04T12:19:13.843Z,97918.06
2023-02-04T12:21:40.843Z,97913.81
2023-02-04T12:24:07.502Z,97908.69
2023-02-04T12:26:34.038Z,97916.31
2023-02-04T12:29:02.967Z,97926.72
2023-02-04T12:31:30.380Z,97927.59
2023-02-04T12:33:57.289Z,97921.78
2023-02-04T12:36:24.548Z,97934.34
2023-02-04T12:38:51.243Z,97932.59
2023-02-04T12:41:19.869Z,97932.59
2023-02-04T12:43:46.793Z,97936.84
2023-02-04T12:46:13.268Z,97934.38
2023-02-04T12:48:41.144Z,97942.75
2023-02-04T12:51:08.176Z,97932.31
2023-02-04T12:53:34.866Z,97939.09
2023-02-04T12:56:01.648Z,97944.97
2023-02-04T12:58:28.179Z,97940.50
2023-02-04T13:00:54.914Z,97939.72
2023-02-04T13:03:22.772Z,97941.63
2023-02-04T13:05:49.257Z,97942.47
2023-02-04T13:08:15.994Z,97946.97
2023-02-04T13:10:42.950Z,97953.13
2023-02-04T13:13:09.643Z,97942.78
2023-02-04T13:15:36.183Z,97951.47
2023-02-04T13:18:02.845Z,97953.81
2023-02-04T13:20:29.295Z,97963.31
2023-02-04T13:22:55.838Z,97961.22
2023-02-04T13:25:22.517Z,97957.81
2023-02-04T13:27:49.161Z,97958.47
2023-02-04T13:30:16.059Z,97962.81
2023-02-04T13:32:43.529Z,97962.47
2023-02-04T13:35:10.167Z,97976.94
2023-02-04T13:37:38.120Z,97975.00
2023-02-04T13:40:06.186Z,97971.00
2023-02-04T13:42:32.657Z,97966.91
2023-02-04T13:44:59.250Z,97978.13
2023-02-04T13:47:25.840Z,97981.72
2023-02-04T13:49:52.342Z,98002.06
2023-02-04T13:52:19.249Z,98010.53
2023-02-04T13:54:46.103Z,98007.38
2023-02-04T13:57:13.246Z,98006.56
2023-02-04T13:59:39.897Z,98012.47
2023-02-04T14:02:06.616Z,98020.03
2023-02-04T14:04:33.155Z,98019.09
2023-02-04T14:06:59.792Z,98016.53
2023-02-04T14:09:26.444Z,98023.19
2023-02-04T14:11:52.953Z,98019.00
2023-02-04T14:14:19.460Z,98024.78
2023-02-04T14:16:46.146Z,98029.06
2023-02-04T14:19:14.141Z,98030.06
2023-02-04T14:21:40.648Z,98030.03
2023-02-04T14:24:07.343Z,98027.63
2023-02-04T14:26:33.918Z,98025.13
2023-02-04T14:29:00.444Z,98024.16
2023-02-04T14:31:27.150Z,98026.84
2023-02-04T14:33:53.846Z,98031.97
2023-02-04T14:36:22.150Z,98027.81
2023-02-04T14:38:48.908Z,98033.56
2023-02-04T14:41:17.349Z,98038.69
2023-02-04T14:43:44.076Z,98039.53
2023-02-04T14:46:10.854Z,98030.19
2023-02-04T14:48:37.378Z,98032.69
2023-02-04T14:51:04.704Z,98036.84
2023-02-04T14:53:31.396Z,98047.13
2023-02-04T14:55:57.975Z,98046.31
2023-02-04T14:58:26.933Z,98044.59
2023-02-04T15:00:54.309Z,98052.13
2023-02-04T15:03:20.814Z,98056.47
2023-02-04T15:05:47.385Z,98054.78
2023-02-04T15:08:13.888Z,98055.84
2023-02-04T15:10:41.322Z,98065.22
2023-02-04T15:13:08.136Z,98064.34
2023-02-04T15:15:35.038Z,98063.44
2023-02-04T15:18:01.684Z,98060.06
2023-02-04T15:20:28.471Z,98074.31
2023-02-04T15:22:56.429Z,98079.44
2023-02-04T15:25:23.857Z,98078.56
2023-02-04T15:27:50.671Z,98079.53
2023-02-04T15:30:17.605Z,98082.94
2023-02-04T15:32:46.046Z,98084.56
2023-02-04T15:35:13.605Z,98090.66
2023-02-04T15:37:40.136Z,98095.69
2023-02-04T15:40:08.591Z,98097.44
2023-02-04T15:42:35.695Z,98096.56
2023-02-04T15:45:02.211Z,98104.13
2023-02-04T15:47:28.666Z,98104.16
2023-02-04T15:49:55.103Z,98100.78
2023-02-04T15:52:24.925Z,98110.09
2023-02-04T15:54:51.752Z,98103.41
2023-02-04T15:57:18.265Z,98105.09
2023-02-04T15:59:44.755Z,98111.00
2023-02-04T16:02:11.774Z,98113.56
2023-02-04T16:04:38.469Z,98115.22
2023-02-04T16:07:08.158Z,98118.63
2023-02-04T16:09:35.708Z,98122.03
2023-02-04T16:12:02.274Z,98130.44
2023-02-04T16:14:28.918Z,98130.47
2023-02-04T16:16:55.351Z,98132.22
2023-02-04T16:19:21.821Z,98133.94
2023-02-04T16:21:48.257Z,98137.31
2023-02-04T16:24:18.305Z,98142.38
2023-02-04T16:26:45.435Z,98139.84
2023-02-04T16:29:11.932Z,98137.38
2023-02-04T16:31:38.618Z,98138.19
2023-02-04T16:34:05.211Z,98144.94
2023-02-04T16:36:31.821Z,98143.28
2023-02-04T16:38:59.420Z,98151.66
2023-02-04T16:41:26.180Z,98154.19
2023-02-04T16:43:52.818Z,98145.81
2023-02-04T16:46:19.350Z,98155.06
2023-02-04T16:48:45.856Z,98159.25
2023-02-04T16:51:12.967Z,98160.97
2023-02-04T16:53:39.701Z,98158.44
2023-02-04T16:56:06.757Z,98177.75
2023-02-04T16:58:33.244Z,98175.25
2023-02-04T17:00:59.896Z,98181.13
2023-02-04T17:03:28.062Z,98182.84
2023-02-04T17:05:54.697Z,98184.50
2023-02-04T17:08:21.158Z,98184.47
2023-02-04T17:11:06.747Z,98187.88
2023-02-04T17:13:34.227Z,98191.22
2023-02-04T17:16:01.297Z,98188.69
2023-02-04T17:18:31.956Z,98195.44
2023-02-04T17:20:59.455Z,98197.94
2023-02-04T17:23:26.943Z,98203.00
2023-02-04T17:25:53.473Z,98192.91
2023-02-04T17:28:20.028Z,98199.63
2023-02-04T17:30:46.626Z,98205.50
2023-02-04T17:33:13.171Z,98213.09
2023-02-04T17:35:39.809Z,98208.03
2023-02-04T17:38:06.356Z,98213.94
2023-02-04T17:40:33.000Z,98216.44
2023-02-04T17:42:59.586Z,98215.59
2023-02-04T17:45:26.229Z,98219.84
2023-02-04T17:47:52.885Z,98228.22
2023-02-04T17:50:19.358Z,98229.91
2023-02-04T17:52:45.848Z,98232.44
2023-02-04T17:55:30.633Z,98233.25
2023-02-04T17:58:02.376Z,98240.00
2023-02-04T18:00:30.712Z,98243.34
2023-02-04T18:02:57.622Z,98244.19
2023-02-04T18:05:26.849Z,98245.03
2023-02-04T18:08:01.307Z,98253.44
2023-02-04T18:10:34.207Z,98248.41
2023-02-04T18:13:09.638Z,98245.06
2023-02-04T18:15:36.803Z,98249.25
2023-02-04T18:18:12.909Z,98248.41
2023-02-04T18:20:39.589Z,98253.47
2023-02-04T18:23:11.837Z,98260.19
2023-02-04T18:25:38.306Z,98252.59
2023-02-04T18:28:13.478Z,98258.50
2023-02-04T18:30:40.055Z,98260.16
2023-02-04T18:33:15.637Z,98264.41
2023-02-04T18:35:45.547Z,98270.25
2023-02-04T18:38:28.414Z,98265.25
2023-02-04T18:41:20.916Z,98268.56
2023-02-04T18:44:02.094Z,98275.28
2023-02-04T18:46:33.150Z,98269.41
2023-02-04T18:49:27.395Z,98280.31
2023-02-04T18:51:54.959Z,98281.97
2023-02-04T18:54:29.022Z,98289.53
2023-02-04T18:57:21.741Z,98297.88
2023-02-04T18:59:48.495Z,98294.59
2023-02-04T19:02:36.224Z,98293.69
2023-02-04T19:05:30.000Z,98292.84
2023-02-04T19:08:05.910Z,98300.44
2023-02-04T19:10:34.531Z,98297.09
2023-02-04T19:13:37.125Z,98298.78
2023-02-04T19:16:21.599Z,98303.78
2023-02-04T19:18:48.573Z,98296.25
2023-02-04T19:21:22.746Z,98297.94
2023-02-04T19:23:50.238Z,98303.00
2023-02-04T19:26:29.320Z,98301.31
2023-02-04T19:28:56.580Z,98304.69
2023-02-04T19:31:23.142Z,98317.28
2023-02-04T19:33:55.329Z,98323.16
2023-02-04T19:36:37.711Z,98315.59
2023-02-04T19:39:43.363Z,98317.22
2023-02-04T19:42:36.370Z,98316.41
2023-02-04T19:45:21.958Z,98323.97
2023-02-04T19:47:50.079Z,98327.31
2023-02-04T19:50:23.630Z,98327.34
2023-02-04T19:53:09.642Z,98336.59
2023-02-04T19:55:42.625Z,98339.94
2023-02-04T19:58:23.337Z,98335.78
2023-02-04T20:01:08.294Z,98339.13
2023-02-04T20:03:41.877Z,98335.72
2023-02-04T20:06:29.913Z,98329.06
2023-02-04T20:09:18.221Z,98332.44
2023-02-04T20:11:55.589Z,98343.31
2023-02-04T20:14:25.242Z,98347.50
2023-02-04T20:17:00.241Z,98355.00
2023-02-04T20:19:35.587Z,98354.19
2023-02-04T20:22:17.228Z,98355.88
2023-02-04T20:24:47.501Z,98346.69
2023-02-04T20:27:20.894Z,98355.09
2023-02-04T20:29:48.044Z,98358.44
2023-02-04T20:32:17.916Z,98360.97
2023-02-04T20:34:44.473Z,98360.97
2023-02-04T20:37:23.682Z,98366.00
2023-02-04T20:39:50.111Z,98368.53
2023-02-04T20:42:28.320Z,98366.88
2023-02-04T20:44:58.146Z,98371.91
2023-02-04T20:47:25.951Z,98376.94
2023-02-04T20:49:56.151Z,98381.13
2023-02-04T20:52:48.608Z,98385.34
2023-02-04T20:55:28.533Z,98382.81
2023-02-04T20:58:16.007Z,98395.44
2023-02-04T21:00:43.688Z,98397.97
2023-02-04T21:03:13.085Z,98407.16
2023-02-04T21:05:40.150Z,98405.53
2023-02-04T21:08:44.750Z,98406.38
2023-02-04T21:11:11.787Z,98411.41
2023-02-04T21:13:38.809Z,98416.41
2023-02-04T21:16:06.664Z,98413.06
2023-02-04T21:18:36.089Z,98411.41
2023-02-04T21:21:04.388Z,98419.75
2023-02-04T21:23:30.910Z,98425.59
2023-02-04T21:25:57.417Z,98428.97
2023-02-04T21:28:24.005Z,98428.13
2023-02-04T21:30:50.654Z,98434.81
2023-02-04T21:33:17.365Z,98433.00
2023-02-04T21:35:43.931Z,98430.53
2023-02-04T21:38:10.521Z,98431.31
2023-02-04T21:40:38.210Z,98426.22
2023-02-04T21:43:07.478Z,98433.69
2023-02-04T21:45:35.942Z,98441.22
2023-02-04T21:48:03.111Z,98442.72
2023-02-04T21:50:30.309Z,98445.38
2023-02-04T21:52:57.107Z,98449.50
2023-02-04T21:55:23.659Z,98452.69
2023-02-04T21:57:50.643Z,98458.69
2023-02-04T22:00:19.771Z,98461.16
2023-02-04T22:02:46.287Z,98462.84
2023-02-04T22:05:13.266Z,98467.69
2023-02-04T22:07:40.521Z,98460.16
2023-02-04T22:10:09.739Z,98465.22
2023-02-04T22:12:36.292Z,98464.34
2023-02-04T22:15:04.489Z,98461.81
2023-02-04T22:17:31.172Z,98464.16
2023-02-04T22:19:57.706Z,98473.38
2023-02-04T22:22:24.220Z,98478.28
2023-02-04T22:24:50.665Z,98469.84
2023-02-04T22:27:17.334Z,98477.53
2023-02-04T22:29:43.905Z,98475.63
2023-02-04T22:32:10.418Z,98483.84
2023-02-04T22:34:36.969Z,98490.41
2023-02-04T22:37:03.540Z,98492.97
2023-02-04T22:39:30.050Z,98492.94
2023-02-04T22:41:56.702Z,98497.13
2023-02-04T22:44:23.400Z,98502.84
2023-02-04T22:46:49.926Z,98502.84
2023-02-04T22:49:16.397Z,98501.28
2023-02-04T22:51:42.952Z,98500.22
2023-02-04T22:54:09.449Z,98502.78
2023-02-04T22:56:35.964Z,98506.06
2023-02-04T22:59:02.696Z,98515.16
2023-02-04T23:01:29.218Z,98522.66
2023-02-04T23:03:55.728Z,98521.03
2023-02-04T23:06:22.656Z,98527.66
2023-02-04T23:08:49.651Z,98528.56
2023-02-04T23:11:18.462Z,98531.06
2023-02-04T23:13:45.734Z,98535.13
2023-02-04T23:16:15.010Z,98531.66
2023-02-04T23:18:41.513Z,98535.06
2023-02-04T23:21:10.105Z,98534.97
2023-02-04T23:23:36.975Z,98540.81
2023-02-04T23:26:04.218Z,98539.06
2023-02-04T23:28:31.183Z,98532.34
2023-02-04T23:30:58.201Z,98541.44
2023-02-04T23:33:24.749Z,98547.47
2023-02-04T23:35:51.458Z,98543.22
2023-02-04T23:38:17.999Z,98547.34
2023-02-04T23:40:44.681Z,98555.69
2023-02-04T23:43:11.695Z,98555.56
2023-02-04T23:45:38.477Z,98556.38
2023-02-04T23:48:05.746Z,98548.78
2023-02-04T23:50:32.660Z,98554.66
2023-02-04T23:52:59.132Z,98553.06
2023-02-04T23:55:25.633Z,98553.19
2023-02-04T23:57:52.199Z,98553.94
